sensor_id;sensor_type;location;lat;lon;timestamp;P1;durP1;ratioP1;P2;durP2;ratioP2
71665;SDS011;59503;53.486;10.196;2023-02-08T00:02:08;37.13;;;15.60;;
71665;SDS011;59503;53.486;10.196;2023-02-08T00:04:34;36.53;;;15.83;;
71665;SDS011;59503;53.486;10.196;2023-02-08T00:06:59;37.00;;;16.20;;
71665;SDS011;59503;53.486;10.196;2023-02-08T00:09:25;44.55;;;17.02;;
71665;SDS011;59503;53.486;10.196;2023-02-08T00:11:50;38.93;;;16.20;;
71665;SDS011;59503;53.486;10.196;2023-02-08T00:14:15;39.43;;;15.60;;
71665;SDS011;59503;53.486;10.196;2023-02-08T00:16:41;35.33;;;15.55;;
71665;SDS011;59503;53.486;10.196;2023-02-08T00:19:06;38.60;;;14.90;;
71665;SDS011;59503;53.486;10.196;2023-02-08T00:21:32;36.70;;;15.37;;
71665;SDS011;59503;53.486;10.196;2023-02-08T00:23:57;38.37;;;15.10;;
71665;SDS011;59503;53.486;10.196;2023-02-08T00:26:23;36.05;;;14.60;;
71665;SDS011;59503;53.486;10.196;2023-02-08T00:28:48;32.57;;;14.40;;
71665;SDS011;59503;53.486;10.196;2023-02-08T00:31:13;38.00;;;15.23;;
71665;SDS011;59503;53.486;10.196;2023-02-08T00:33:39;39.07;;;15.50;;
71665;SDS011;59503;53.486;10.196;2023-02-08T00:36:05;35.67;;;15.00;;
71665;SDS011;59503;53.486;10.196;2023-02-08T00:38:32;36.17;;;15.37;;
71665;SDS011;59503;53.486;10.196;2023-02-08T00:40:58;37.75;;;15.82;;
71665;SDS011;59503;53.486;10.196;2023-02-08T00:43:23;35.53;;;15.17;;
71665;SDS011;59503;53.486;10.196;2023-02-08T00:45:53;38.75;;;14.98;;
71665;SDS011;59503;53.486;10.196;2023-02-08T00:48:23;39.17;;;15.13;;
71665;SDS011;59503;53.486;10.196;2023-02-08T00:51:03;37.03;;;15.60;;
71665;SDS011;59503;53.486;10.196;2023-02-08T00:53:28;38.72;;;15.65;;
71665;SDS011;59503;53.486;10.196;2023-02-08T00:55:54;36.25;;;15.73;;
71665;SDS011;59503;53.486;10.196;2023-02-08T00:58:20;38.20;;;15.40;;
71665;SDS011;59503;53.486;10.196;2023-02-08T01:00:49;40.30;;;15.60;;
71665;SDS011;59503;53.486;10.196;2023-02-08T01:03:16;36.33;;;14.88;;
71665;SDS011;59503;53.486;10.196;2023-02-08T01:05:42;39.80;;;15.10;;
71665;SDS011;59503;53.486;10.196;2023-02-08T01:08:07;36.97;;;15.00;;
71665;SDS011;59503;53.486;10.196;2023-02-08T01:10:33;35.87;;;15.03;;
71665;SDS011;59503;53.486;10.196;2023-02-08T01:12:58;38.90;;;15.33;;
71665;SDS011;59503;53.486;10.196;2023-02-08T01:15:25;38.00;;;15.40;;
71665;SDS011;59503;53.486;10.196;2023-02-08T01:17:55;38.70;;;15.35;;
71665;SDS011;59503;53.486;10.196;2023-02-08T01:20:21;35.45;;;14.57;;
71665;SDS011;59503;53.486;10.196;2023-02-08T01:22:47;38.17;;;15.03;;
71665;SDS011;59503;53.486;10.196;2023-02-08T01:25:13;42.97;;;16.63;;
71665;SDS011;59503;53.486;10.196;2023-02-08T01:27:38;42.27;;;15.87;;
71665;SDS011;59503;53.486;10.196;2023-02-08T01:30:04;39.43;;;16.37;;
71665;SDS011;59503;53.486;10.196;2023-02-08T01:32:30;41.25;;;15.55;;
71665;SDS011;59503;53.486;10.196;2023-02-08T01:34:55;33.93;;;14.57;;
71665;SDS011;59503;53.486;10.196;2023-02-08T01:37:20;39.03;;;14.80;;
71665;SDS011;59503;53.486;10.196;2023-02-08T01:39:46;42.57;;;15.83;;
71665;SDS011;59503;53.486;10.196;2023-02-08T01:42:15;36.97;;;15.60;;
71665;SDS011;59503;53.486;10.196;2023-02-08T01:47:39;44.45;;;15.90;;
71665;SDS011;59503;53.486;10.196;2023-02-08T01:50:05;40.00;;;15.27;;
71665;SDS011;59503;53.486;10.196;2023-02-08T01:52:31;42.22;;;15.82;;
71665;SDS011;59503;53.486;10.196;2023-02-08T01:57:58;39.08;;;14.70;;
71665;SDS011;59503;53.486;10.196;2023-02-08T02:00:27;44.95;;;17.40;;
71665;SDS011;59503;53.486;10.196;2023-02-08T02:02:53;46.97;;;17.03;;
71665;SDS011;59503;53.486;10.196;2023-02-08T02:05:21;50.10;;;17.75;;
71665;SDS011;59503;53.486;10.196;2023-02-08T02:07:52;49.20;;;17.60;;
71665;SDS011;59503;53.486;10.196;2023-02-08T02:10:30;44.33;;;17.58;;
71665;SDS011;59503;53.486;10.196;2023-02-08T02:12:59;41.78;;;16.95;;
71665;SDS011;59503;53.486;10.196;2023-02-08T02:15:27;43.57;;;16.30;;
71665;SDS011;59503;53.486;10.196;2023-02-08T02:17:53;38.53;;;16.67;;
71665;SDS011;59503;53.486;10.196;2023-02-08T02:31:48;39.72;;;15.20;;
71665;SDS011;59503;53.486;10.196;2023-02-08T02:34:39;40.10;;;15.05;;
71665;SDS011;59503;53.486;10.196;2023-02-08T02:37:14;38.53;;;15.07;;
71665;SDS011;59503;53.486;10.196;2023-02-08T02:42:44;45.28;;;16.75;;
71665;SDS011;59503;53.486;10.196;2023-02-08T02:51:26;39.47;;;15.33;;
71665;SDS011;59503;53.486;10.196;2023-02-08T02:54:12;45.53;;;16.02;;
71665;SDS011;59503;53.486;10.196;2023-02-08T02:56:44;48.70;;;16.20;;
71665;SDS011;59503;53.486;10.196;2023-02-08T02:59:13;46.08;;;17.73;;
71665;SDS011;59503;53.486;10.196;2023-02-08T03:01:41;40.30;;;16.83;;
71665;SDS011;59503;53.486;10.196;2023-02-08T03:04:15;43.73;;;15.73;;
71665;SDS011;59503;53.486;10.196;2023-02-08T03:17:56;46.20;;;16.77;;
71665;SDS011;59503;53.486;10.196;2023-02-08T03:26:01;41.70;;;15.50;;
71665;SDS011;59503;53.486;10.196;2023-02-08T03:28:49;39.40;;;15.35;;
71665;SDS011;59503;53.486;10.196;2023-02-08T03:31:32;45.57;;;17.23;;
71665;SDS011;59503;53.486;10.196;2023-02-08T03:34:22;47.58;;;16.23;;
71665;SDS011;59503;53.486;10.196;2023-02-08T03:37:09;43.03;;;15.50;;
71665;SDS011;59503;53.486;10.196;2023-02-08T03:39:39;43.25;;;16.50;;
71665;SDS011;59503;53.486;10.196;2023-02-08T03:42:18;36.97;;;15.32;;
71665;SDS011;59503;53.486;10.196;2023-02-08T03:44:56;41.40;;;15.87;;
71665;SDS011;59503;53.486;10.196;2023-02-08T03:47:27;42.30;;;15.90;;
71665;SDS011;59503;53.486;10.196;2023-02-08T03:49:57;41.10;;;14.60;;
71665;SDS011;59503;53.486;10.196;2023-02-08T03:52:27;39.70;;;15.50;;
71665;SDS011;59503;53.486;10.196;2023-02-08T03:57:45;44.47;;;16.57;;
71665;SDS011;59503;53.486;10.196;2023-02-08T04:00:16;45.42;;;15.73;;
71665;SDS011;59503;53.486;10.196;2023-02-08T04:05:20;44.78;;;16.42;;
71665;SDS011;59503;53.486;10.196;2023-02-08T04:07:46;41.95;;;15.13;;
71665;SDS011;59503;53.486;10.196;2023-02-08T04:10:12;43.70;;;15.80;;
71665;SDS011;59503;53.486;10.196;2023-02-08T04:12:37;47.73;;;16.27;;
71665;SDS011;59503;53.486;10.196;2023-02-08T04:15:03;55.33;;;18.25;;
71665;SDS011;59503;53.486;10.196;2023-02-08T04:17:29;53.47;;;17.80;;
71665;SDS011;59503;53.486;10.196;2023-02-08T04:19:54;50.10;;;17.13;;
71665;SDS011;59503;53.486;10.196;2023-02-08T04:22:19;50.38;;;17.17;;
71665;SDS011;59503;53.486;10.196;2023-02-08T04:24:45;51.87;;;17.37;;
71665;SDS011;59503;53.486;10.196;2023-02-08T04:27:10;49.73;;;18.37;;
71665;SDS011;59503;53.486;10.196;2023-02-08T04:29:35;47.50;;;16.83;;
71665;SDS011;59503;53.486;10.196;2023-02-08T04:32:01;52.47;;;19.73;;
71665;SDS011;59503;53.486;10.196;2023-02-08T04:34:27;58.28;;;19.05;;
71665;SDS011;59503;53.486;10.196;2023-02-08T04:36:53;51.13;;;19.63;;
71665;SDS011;59503;53.486;10.196;2023-02-08T04:39:18;51.83;;;19.30;;
71665;SDS011;59503;53.486;10.196;2023-02-08T04:41:44;59.40;;;20.30;;
71665;SDS011;59503;53.486;10.196;2023-02-08T04:44:09;50.63;;;18.17;;
71665;SDS011;59503;53.486;10.196;2023-02-08T04:46:34;52.27;;;19.53;;
71665;SDS011;59503;53.486;10.196;2023-02-08T04:49:00;55.00;;;19.30;;
71665;SDS011;59503;53.486;10.196;2023-02-08T04:51:25;50.93;;;19.33;;
71665;SDS011;59503;53.486;10.196;2023-02-08T04:53:51;48.63;;;18.53;;
71665;SDS011;59503;53.486;10.196;2023-02-08T04:56:16;50.30;;;18.53;;
71665;SDS011;59503;53.486;10.196;2023-02-08T04:58:41;53.55;;;18.85;;
71665;SDS011;59503;53.486;10.196;2023-02-08T05:01:07;54.80;;;18.10;;
71665;SDS011;59503;53.486;10.196;2023-02-08T05:03:35;53.30;;;18.48;;
71665;SDS011;59503;53.486;10.196;2023-02-08T05:06:00;53.60;;;17.70;;
71665;SDS011;59503;53.486;10.196;2023-02-08T05:08:26;54.50;;;18.58;;
71665;SDS011;59503;53.486;10.196;2023-02-08T05:10:52;49.15;;;17.75;;
71665;SDS011;59503;53.486;10.196;2023-02-08T05:13:18;50.30;;;18.07;;
71665;SDS011;59503;53.486;10.196;2023-02-08T05:15:43;53.03;;;17.33;;
71665;SDS011;59503;53.486;10.196;2023-02-08T05:18:08;48.10;;;16.95;;
71665;SDS011;59503;53.486;10.196;2023-02-08T05:20:34;47.13;;;17.37;;
71665;SDS011;59503;53.486;10.196;2023-02-08T05:22:59;53.13;;;17.03;;
71665;SDS011;59503;53.486;10.196;2023-02-08T05:25:25;45.90;;;17.38;;
71665;SDS011;59503;53.486;10.196;2023-02-08T05:27:50;45.00;;;16.40;;
71665;SDS011;59503;53.486;10.196;2023-02-08T05:30:16;46.77;;;17.77;;
71665;SDS011;59503;53.486;10.196;2023-02-08T05:32:41;54.28;;;17.98;;
71665;SDS011;59503;53.486;10.196;2023-02-08T05:35:07;54.70;;;18.27;;
71665;SDS011;59503;53.486;10.196;2023-02-08T05:37:32;46.07;;;17.33;;
71665;SDS011;59503;53.486;10.196;2023-02-08T05:39:58;54.30;;;17.48;;
71665;SDS011;59503;53.486;10.196;2023-02-08T05:42:23;47.17;;;17.63;;
71665;SDS011;59503;53.486;10.196;2023-02-08T05:44:49;44.87;;;17.03;;
71665;SDS011;59503;53.486;10.196;2023-02-08T05:47:14;44.03;;;16.23;;
71665;SDS011;59503;53.486;10.196;2023-02-08T05:49:39;44.33;;;16.47;;
71665;SDS011;59503;53.486;10.196;2023-02-08T05:52:05;46.28;;;18.20;;
71665;SDS011;59503;53.486;10.196;2023-02-08T05:54:30;44.33;;;16.30;;
71665;SDS011;59503;53.486;10.196;2023-02-08T05:56:56;46.67;;;17.10;;
71665;SDS011;59503;53.486;10.196;2023-02-08T05:59:21;48.20;;;17.20;;
71665;SDS011;59503;53.486;10.196;2023-02-08T06:01:47;46.33;;;17.17;;
71665;SDS011;59503;53.486;10.196;2023-02-08T06:04:12;49.30;;;17.63;;
71665;SDS011;59503;53.486;10.196;2023-02-08T06:06:38;49.50;;;18.48;;
71665;SDS011;59503;53.486;10.196;2023-02-08T06:09:03;52.60;;;17.13;;
71665;SDS011;59503;53.486;10.196;2023-02-08T06:11:29;55.33;;;18.13;;
71665;SDS011;59503;53.486;10.196;2023-02-08T06:13:54;49.30;;;16.90;;
71665;SDS011;59503;53.486;10.196;2023-02-08T06:16:20;51.37;;;17.33;;
71665;SDS011;59503;53.486;10.196;2023-02-08T06:18:45;50.00;;;17.93;;
71665;SDS011;59503;53.486;10.196;2023-02-08T06:21:11;48.33;;;17.37;;
71665;SDS011;59503;53.486;10.196;2023-02-08T06:23:36;51.70;;;16.63;;
71665;SDS011;59503;53.486;10.196;2023-02-08T06:26:02;45.63;;;16.93;;
71665;SDS011;59503;53.486;10.196;2023-02-08T06:28:27;49.38;;;18.98;;
71665;SDS011;59503;53.486;10.196;2023-02-08T06:30:53;41.90;;;16.40;;
71665;SDS011;59503;53.486;10.196;2023-02-08T06:33:18;51.70;;;17.47;;
71665;SDS011;59503;53.486;10.196;2023-02-08T06:35:49;47.20;;;17.47;;
71665;SDS011;59503;53.486;10.196;2023-02-08T06:38:16;52.53;;;18.48;;
71665;SDS011;59503;53.486;10.196;2023-02-08T06:40:41;50.83;;;17.85;;
71665;SDS011;59503;53.486;10.196;2023-02-08T06:43:07;48.17;;;17.97;;
71665;SDS011;59503;53.486;10.196;2023-02-08T06:45:32;59.07;;;17.87;;
71665;SDS011;59503;53.486;10.196;2023-02-08T06:47:58;55.97;;;18.97;;
71665;SDS011;59503;53.486;10.196;2023-02-08T06:50:23;48.57;;;17.67;;
71665;SDS011;59503;53.486;10.196;2023-02-08T06:52:49;52.97;;;18.53;;
71665;SDS011;59503;53.486;10.196;2023-02-08T06:55:14;54.72;;;18.42;;
71665;SDS011;59503;53.486;10.196;2023-02-08T06:57:39;50.80;;;17.73;;
71665;SDS011;59503;53.486;10.196;2023-02-08T07:00:05;56.03;;;18.60;;
71665;SDS011;59503;53.486;10.196;2023-02-08T07:02:31;56.22;;;19.58;;
71665;SDS011;59503;53.486;10.196;2023-02-08T07:04:57;65.25;;;20.55;;
71665;SDS011;59503;53.486;10.196;2023-02-08T07:07:22;53.07;;;19.77;;
71665;SDS011;59503;53.486;10.196;2023-02-08T07:09:48;58.20;;;18.77;;
71665;SDS011;59503;53.486;10.196;2023-02-08T07:12:13;60.83;;;20.67;;
71665;SDS011;59503;53.486;10.196;2023-02-08T07:14:39;55.03;;;19.37;;
71665;SDS011;59503;53.486;10.196;2023-02-08T07:17:07;61.45;;;20.30;;
71665;SDS011;59503;53.486;10.196;2023-02-08T07:19:33;60.33;;;21.48;;
71665;SDS011;59503;53.486;10.196;2023-02-08T07:21:59;60.77;;;20.50;;
71665;SDS011;59503;53.486;10.196;2023-02-08T07:24:37;55.78;;;19.50;;
71665;SDS011;59503;53.486;10.196;2023-02-08T07:27:04;58.75;;;19.67;;
71665;SDS011;59503;53.486;10.196;2023-02-08T07:29:31;52.50;;;18.90;;
71665;SDS011;59503;53.486;10.196;2023-02-08T07:31:58;58.70;;;19.73;;
71665;SDS011;59503;53.486;10.196;2023-02-08T07:34:25;59.88;;;18.65;;
71665;SDS011;59503;53.486;10.196;2023-02-08T07:36:52;57.65;;;20.05;;
71665;SDS011;59503;53.486;10.196;2023-02-08T07:39:18;60.83;;;21.47;;
71665;SDS011;59503;53.486;10.196;2023-02-08T07:41:43;60.60;;;20.33;;
71665;SDS011;59503;53.486;10.196;2023-02-08T07:44:08;59.10;;;18.40;;
71665;SDS011;59503;53.486;10.196;2023-02-08T07:46:34;57.97;;;20.23;;
71665;SDS011;59503;53.486;10.196;2023-02-08T07:48:59;58.97;;;20.70;;
71665;SDS011;59503;53.486;10.196;2023-02-08T07:51:25;67.50;;;21.10;;
71665;SDS011;59503;53.486;10.196;2023-02-08T07:53:50;56.70;;;20.45;;
71665;SDS011;59503;53.486;10.196;2023-02-08T07:56:16;59.37;;;20.50;;
71665;SDS011;59503;53.486;10.196;2023-02-08T07:58:42;54.72;;;20.83;;
71665;SDS011;59503;53.486;10.196;2023-02-08T08:01:07;63.05;;;20.13;;
71665;SDS011;59503;53.486;10.196;2023-02-08T08:03:33;62.43;;;20.33;;
71665;SDS011;59503;53.486;10.196;2023-02-08T08:05:58;69.33;;;21.67;;
71665;SDS011;59503;53.486;10.196;2023-02-08T08:08:24;63.07;;;20.50;;
71665;SDS011;59503;53.486;10.196;2023-02-08T08:10:49;58.58;;;19.30;;
71665;SDS011;59503;53.486;10.196;2023-02-08T08:13:15;62.67;;;20.50;;
71665;SDS011;59503;53.486;10.196;2023-02-08T08:15:40;59.50;;;19.37;;
71665;SDS011;59503;53.486;10.196;2023-02-08T08:18:06;60.90;;;21.35;;
71665;SDS011;59503;53.486;10.196;2023-02-08T08:20:32;60.40;;;21.80;;
71665;SDS011;59503;53.486;10.196;2023-02-08T08:22:58;65.38;;;20.48;;
71665;SDS011;59503;53.486;10.196;2023-02-08T08:25:24;62.67;;;20.58;;
71665;SDS011;59503;53.486;10.196;2023-02-08T08:27:50;61.33;;;21.00;;
71665;SDS011;59503;53.486;10.196;2023-02-08T08:30:16;57.63;;;19.00;;
71665;SDS011;59503;53.486;10.196;2023-02-08T08:32:42;60.05;;;20.15;;
71665;SDS011;59503;53.486;10.196;2023-02-08T08:35:08;62.73;;;21.40;;
71665;SDS011;59503;53.486;10.196;2023-02-08T08:37:34;58.13;;;19.02;;
71665;SDS011;59503;53.486;10.196;2023-02-08T08:40:00;60.17;;;20.40;;
71665;SDS011;59503;53.486;10.196;2023-02-08T08:42:26;66.35;;;21.10;;
71665;SDS011;59503;53.486;10.196;2023-02-08T08:44:52;62.57;;;21.47;;
71665;SDS011;59503;53.486;10.196;2023-02-08T08:47:18;64.18;;;20.85;;
71665;SDS011;59503;53.486;10.196;2023-02-08T08:49:43;51.50;;;18.40;;
71665;SDS011;59503;53.486;10.196;2023-02-08T08:52:09;55.67;;;19.87;;
71665;SDS011;59503;53.486;10.196;2023-02-08T08:54:35;61.17;;;20.95;;
71665;SDS011;59503;53.486;10.196;2023-02-08T08:57:00;56.60;;;19.90;;
71665;SDS011;59503;53.486;10.196;2023-02-08T08:59:26;53.78;;;19.92;;
71665;SDS011;59503;53.486;10.196;2023-02-08T09:01:52;56.40;;;20.60;;
71665;SDS011;59503;53.486;10.196;2023-02-08T09:04:17;61.63;;;21.40;;
71665;SDS011;59503;53.486;10.196;2023-02-08T09:06:43;64.30;;;21.80;;
71665;SDS011;59503;53.486;10.196;2023-02-08T09:09:08;61.03;;;21.07;;
71665;SDS011;59503;53.486;10.196;2023-02-08T09:11:34;55.13;;;19.40;;
71665;SDS011;59503;53.486;10.196;2023-02-08T09:14:02;52.63;;;18.73;;
71665;SDS011;59503;53.486;10.196;2023-02-08T09:16:28;61.90;;;19.65;;
71665;SDS011;59503;53.486;10.196;2023-02-08T09:18:54;53.43;;;19.77;;
71665;SDS011;59503;53.486;10.196;2023-02-08T09:21:21;59.47;;;20.33;;
71665;SDS011;59503;53.486;10.196;2023-02-08T09:23:49;57.70;;;19.43;;
71665;SDS011;59503;53.486;10.196;2023-02-08T09:26:15;50.20;;;18.80;;
71665;SDS011;59503;53.486;10.196;2023-02-08T09:28:42;60.97;;;21.65;;
71665;SDS011;59503;53.486;10.196;2023-02-08T09:31:12;58.80;;;21.67;;
71665;SDS011;59503;53.486;10.196;2023-02-08T09:33:42;55.42;;;21.27;;
71665;SDS011;59503;53.486;10.196;2023-02-08T09:36:07;61.70;;;21.13;;
71665;SDS011;59503;53.486;10.196;2023-02-08T09:38:33;54.85;;;20.83;;
71665;SDS011;59503;53.486;10.196;2023-02-08T09:46:55;53.28;;;18.00;;
71665;SDS011;59503;53.486;10.196;2023-02-08T09:49:31;54.28;;;19.40;;
71665;SDS011;59503;53.486;10.196;2023-02-08T09:52:07;56.47;;;19.50;;
71665;SDS011;59503;53.486;10.196;2023-02-08T09:54:39;50.57;;;19.50;;
71665;SDS011;59503;53.486;10.196;2023-02-08T09:57:12;45.55;;;17.27;;
71665;SDS011;59503;53.486;10.196;2023-02-08T09:59:45;50.05;;;17.55;;
71665;SDS011;59503;53.486;10.196;2023-02-08T10:02:22;48.25;;;17.33;;
71665;SDS011;59503;53.486;10.196;2023-02-08T10:07:20;51.73;;;17.17;;
71665;SDS011;59503;53.486;10.196;2023-02-08T10:09:46;51.72;;;17.38;;
71665;SDS011;59503;53.486;10.196;2023-02-08T10:20:11;47.80;;;17.30;;
71665;SDS011;59503;53.486;10.196;2023-02-08T10:31:01;50.70;;;17.15;;
71665;SDS011;59503;53.486;10.196;2023-02-08T10:33:49;40.72;;;16.23;;
71665;SDS011;59503;53.486;10.196;2023-02-08T10:36:43;47.88;;;17.05;;
71665;SDS011;59503;53.486;10.196;2023-02-08T10:39:16;49.37;;;18.03;;
71665;SDS011;59503;53.486;10.196;2023-02-08T10:41:43;55.85;;;17.92;;
71665;SDS011;59503;53.486;10.196;2023-02-08T10:50:17;48.10;;;16.80;;
71665;SDS011;59503;53.486;10.196;2023-02-08T10:52:59;48.22;;;17.20;;
71665;SDS011;59503;53.486;10.196;2023-02-08T10:55:25;44.70;;;15.87;;
71665;SDS011;59503;53.486;10.196;2023-02-08T10:57:51;48.05;;;17.30;;
71665;SDS011;59503;53.486;10.196;2023-02-08T11:00:23;49.15;;;16.83;;
71665;SDS011;59503;53.486;10.196;2023-02-08T11:02:52;47.53;;;15.73;;
71665;SDS011;59503;53.486;10.196;2023-02-08T11:05:40;49.73;;;16.70;;
71665;SDS011;59503;53.486;10.196;2023-02-08T11:10:32;46.00;;;16.50;;
71665;SDS011;59503;53.486;10.196;2023-02-08T11:13:02;41.20;;;15.52;;
71665;SDS011;59503;53.486;10.196;2023-02-08T11:15:45;49.25;;;15.48;;
71665;SDS011;59503;53.486;10.196;2023-02-08T11:18:17;47.63;;;15.73;;
71665;SDS011;59503;53.486;10.196;2023-02-08T11:20:47;47.00;;;16.40;;
71665;SDS011;59503;53.486;10.196;2023-02-08T11:23:19;43.50;;;15.52;;
71665;SDS011;59503;53.486;10.196;2023-02-08T11:25:48;46.45;;;15.57;;
71665;SDS011;59503;53.486;10.196;2023-02-08T11:28:21;45.55;;;14.50;;
71665;SDS011;59503;53.486;10.196;2023-02-08T11:31:02;45.57;;;15.57;;
71665;SDS011;59503;53.486;10.196;2023-02-08T11:33:40;40.42;;;14.77;;
71665;SDS011;59503;53.486;10.196;2023-02-08T11:36:26;38.53;;;14.55;;
71665;SDS011;59503;53.486;10.196;2023-02-08T11:38:53;42.97;;;14.23;;
71665;SDS011;59503;53.486;10.196;2023-02-08T11:41:19;37.20;;;13.70;;
71665;SDS011;59503;53.486;10.196;2023-02-08T11:43:54;35.30;;;13.80;;
71665;SDS011;59503;53.486;10.196;2023-02-08T11:46:24;34.13;;;13.52;;
71665;SDS011;59503;53.486;10.196;2023-02-08T11:48:52;39.78;;;13.65;;
71665;SDS011;59503;53.486;10.196;2023-02-08T11:51:37;37.20;;;13.82;;
71665;SDS011;59503;53.486;10.196;2023-02-08T11:54:03;39.65;;;13.98;;
71665;SDS011;59503;53.486;10.196;2023-02-08T11:56:30;32.50;;;13.37;;
71665;SDS011;59503;53.486;10.196;2023-02-08T12:01:44;37.45;;;13.63;;
71665;SDS011;59503;53.486;10.196;2023-02-08T12:04:11;34.83;;;12.82;;
71665;SDS011;59503;53.486;10.196;2023-02-08T12:09:36;32.13;;;12.00;;
71665;SDS011;59503;53.486;10.196;2023-02-08T12:14:38;36.65;;;12.80;;
71665;SDS011;59503;53.486;10.196;2023-02-08T12:23:04;38.97;;;11.83;;
71665;SDS011;59503;53.486;10.196;2023-02-08T12:34:05;30.05;;;11.05;;
71665;SDS011;59503;53.486;10.196;2023-02-08T12:43:01;29.20;;;11.02;;
71665;SDS011;59503;53.486;10.196;2023-02-08T12:54:19;22.10;;;8.73;;
71665;SDS011;59503;53.486;10.196;2023-02-08T12:56:55;24.92;;;9.07;;
71665;SDS011;59503;53.486;10.196;2023-02-08T12:59:25;22.17;;;8.30;;
71665;SDS011;59503;53.486;10.196;2023-02-08T13:01:57;18.50;;;7.90;;
71665;SDS011;59503;53.486;10.196;2023-02-08T13:04:40;23.30;;;8.97;;
71665;SDS011;59503;53.486;10.196;2023-02-08T13:07:54;24.40;;;9.15;;
71665;SDS011;59503;53.486;10.196;2023-02-08T13:10:26;20.23;;;8.15;;
71665;SDS011;59503;53.486;10.196;2023-02-08T13:13:20;21.67;;;8.20;;
71665;SDS011;59503;53.486;10.196;2023-02-08T13:18:26;24.83;;;8.43;;
71665;SDS011;59503;53.486;10.196;2023-02-08T13:21:06;24.30;;;8.50;;
71665;SDS011;59503;53.486;10.196;2023-02-08T13:23:37;22.42;;;7.82;;
71665;SDS011;59503;53.486;10.196;2023-02-08T13:26:07;25.73;;;8.68;;
71665;SDS011;59503;53.486;10.196;2023-02-08T13:28:37;22.13;;;8.82;;
71665;SDS011;59503;53.486;10.196;2023-02-08T13:31:46;26.83;;;8.97;;
71665;SDS011;59503;53.486;10.196;2023-02-08T13:33:58;19.27;;;7.60;;
71665;SDS011;59503;53.486;10.196;2023-02-08T13:36:32;21.95;;;7.80;;
71665;SDS011;59503;53.486;10.196;2023-02-08T13:39:00;21.85;;;8.25;;
71665;SDS011;59503;53.486;10.196;2023-02-08T13:41:29;25.65;;;7.22;;
71665;SDS011;59503;53.486;10.196;2023-02-08T13:44:00;21.87;;;7.67;;
71665;SDS011;59503;53.486;10.196;2023-02-08T13:47:02;21.15;;;8.30;;
71665;SDS011;59503;53.486;10.196;2023-02-08T13:52:09;23.65;;;8.38;;
71665;SDS011;59503;53.486;10.196;2023-02-08T13:54:36;26.80;;;10.48;;
71665;SDS011;59503;53.486;10.196;2023-02-08T13:57:03;23.13;;;9.17;;
71665;SDS011;59503;53.486;10.196;2023-02-08T14:00:13;30.25;;;9.95;;
71665;SDS011;59503;53.486;10.196;2023-02-08T14:02:59;23.90;;;9.55;;
71665;SDS011;59503;53.486;10.196;2023-02-08T14:07:58;24.45;;;9.82;;
71665;SDS011;59503;53.486;10.196;2023-02-08T14:10:38;30.77;;;11.27;;
71665;SDS011;59503;53.486;10.196;2023-02-08T14:15:47;30.23;;;10.23;;
71665;SDS011;59503;53.486;10.196;2023-02-08T14:18:52;26.20;;;10.43;;
71665;SDS011;59503;53.486;10.196;2023-02-08T14:21:33;23.42;;;8.88;;
71665;SDS011;59503;53.486;10.196;2023-02-08T14:27:05;25.02;;;9.75;;
71665;SDS011;59503;53.486;10.196;2023-02-08T14:29:35;25.67;;;9.90;;
71665;SDS011;59503;53.486;10.196;2023-02-08T14:32:01;24.60;;;9.57;;
71665;SDS011;59503;53.486;10.196;2023-02-08T14:34:33;26.45;;;10.10;;
71665;SDS011;59503;53.486;10.196;2023-02-08T14:37:02;26.13;;;10.33;;
71665;SDS011;59503;53.486;10.196;2023-02-08T14:39:45;23.98;;;9.93;;
71665;SDS011;59503;53.486;10.196;2023-02-08T14:42:15;26.30;;;10.48;;
71665;SDS011;59503;53.486;10.196;2023-02-08T14:47:54;22.58;;;8.95;;
71665;SDS011;59503;53.486;10.196;2023-02-08T14:50:26;25.80;;;9.27;;
71665;SDS011;59503;53.486;10.196;2023-02-08T14:53:05;25.92;;;10.48;;
71665;SDS011;59503;53.486;10.196;2023-02-08T14:55:51;26.85;;;9.65;;
71665;SDS011;59503;53.486;10.196;2023-02-08T14:58:23;30.48;;;11.68;;
71665;SDS011;59503;53.486;10.196;2023-02-08T15:00:52;31.00;;;10.75;;
71665;SDS011;59503;53.486;10.196;2023-02-08T15:03:19;26.33;;;10.57;;
71665;SDS011;59503;53.486;10.196;2023-02-08T15:05:53;27.13;;;11.15;;
71665;SDS011;59503;53.486;10.196;2023-02-08T15:08:47;26.90;;;9.95;;
71665;SDS011;59503;53.486;10.196;2023-02-08T15:11:25;27.52;;;9.85;;
71665;SDS011;59503;53.486;10.196;2023-02-08T15:13:54;24.43;;;10.00;;
71665;SDS011;59503;53.486;10.196;2023-02-08T15:16:21;27.73;;;9.88;;
71665;SDS011;59503;53.486;10.196;2023-02-08T15:18:53;28.30;;;10.50;;
71665;SDS011;59503;53.486;10.196;2023-02-08T15:21:19;25.48;;;10.40;;
71665;SDS011;59503;53.486;10.196;2023-02-08T15:24:10;27.03;;;10.17;;
71665;SDS011;59503;53.486;10.196;2023-02-08T15:26:45;23.40;;;9.02;;
71665;SDS011;59503;53.486;10.196;2023-02-08T15:29:23;24.55;;;9.68;;
71665;SDS011;59503;53.486;10.196;2023-02-08T15:31:50;30.05;;;9.77;;
71665;SDS011;59503;53.486;10.196;2023-02-08T15:34:17;30.23;;;10.35;;
71665;SDS011;59503;53.486;10.196;2023-02-08T15:36:49;28.13;;;8.97;;
71665;SDS011;59503;53.486;10.196;2023-02-08T15:39:36;26.02;;;9.80;;
71665;SDS011;59503;53.486;10.196;2023-02-08T15:42:04;30.52;;;9.80;;
71665;SDS011;59503;53.486;10.196;2023-02-08T15:44:40;23.23;;;9.88;;
71665;SDS011;59503;53.486;10.196;2023-02-08T15:47:08;21.80;;;9.10;;
71665;SDS011;59503;53.486;10.196;2023-02-08T15:49:42;25.90;;;9.63;;
71665;SDS011;59503;53.486;10.196;2023-02-08T15:52:14;25.08;;;9.77;;
71665;SDS011;59503;53.486;10.196;2023-02-08T15:54:42;27.25;;;10.25;;
71665;SDS011;59503;53.486;10.196;2023-02-08T16:00:12;26.63;;;10.35;;
71665;SDS011;59503;53.486;10.196;2023-02-08T16:02:41;28.67;;;10.57;;
71665;SDS011;59503;53.486;10.196;2023-02-08T16:05:26;23.45;;;9.30;;
71665;SDS011;59503;53.486;10.196;2023-02-08T16:07:55;27.25;;;10.32;;
71665;SDS011;59503;53.486;10.196;2023-02-08T16:12:53;28.10;;;10.10;;
71665;SDS011;59503;53.486;10.196;2023-02-08T16:15:32;26.50;;;9.57;;
71665;SDS011;59503;53.486;10.196;2023-02-08T16:18:03;28.38;;;9.05;;
71665;SDS011;59503;53.486;10.196;2023-02-08T16:20:32;26.33;;;10.40;;
71665;SDS011;59503;53.486;10.196;2023-02-08T16:23:04;27.23;;;10.05;;
71665;SDS011;59503;53.486;10.196;2023-02-08T16:25:50;23.83;;;9.87;;
71665;SDS011;59503;53.486;10.196;2023-02-08T16:28:36;24.42;;;9.65;;
71665;SDS011;59503;53.486;10.196;2023-02-08T16:31:02;25.95;;;10.05;;
71665;SDS011;59503;53.486;10.196;2023-02-08T16:33:29;26.30;;;10.27;;
71665;SDS011;59503;53.486;10.196;2023-02-08T16:35:55;26.30;;;9.50;;
71665;SDS011;59503;53.486;10.196;2023-02-08T16:38:26;24.60;;;9.02;;
71665;SDS011;59503;53.486;10.196;2023-02-08T16:40:59;28.13;;;9.43;;
71665;SDS011;59503;53.486;10.196;2023-02-08T16:43:36;25.55;;;10.65;;
71665;SDS011;59503;53.486;10.196;2023-02-08T16:48:36;31.55;;;9.57;;
71665;SDS011;59503;53.486;10.196;2023-02-08T16:51:05;25.00;;;9.75;;